Time;durP1;ratioP1;P1;durP2;ratioP2;P2;SDS_P1;SDS_P2;PMS_P1;PMS_P2;Temp;Humidity;BMP_temperature;BMP_pressure;BME280_temperature;BME280_humidity;BME280_pressure;Samples;Min_cycle;Max_cycle;Signal;HPM_P1;HPM_P2
2022/11/17 00:00:00;;;;;;;0.50;0.50;;;;;;;7.66;82.32;95165.84;29395;210;63009;-60
2022/11/17 00:00:32;;;;;;;0.50;0.50;;;;;;;7.63;82.26;95161.06;29395;242;63005;-58
2022/11/17 00:01:08;;;;;;;0.68;0.68;;;;;;;7.63;82.33;95169.16;29394;205;64013;-59
2022/11/17 00:01:41;;;;;;;0.60;0.60;;;;;;;7.64;82.60;95162.66;29395;197;63004;-60
2022/11/17 00:02:12;;;;;;;0.50;0.50;;;;;;;7.62;82.97;95167.63;29395;213;63009;-59
2022/11/17 00:02:44;;;;;;;0.50;0.50;;;;;;;7.60;82.69;95167.13;29395;225;63004;-59
2022/11/17 00:03:18;;;;;;;0.60;0.60;;;;;;;7.60;82.74;95161.72;29394;216;64013;-59
2022/11/17 00:03:51;;;;;;;0.60;0.60;;;;;;;7.60;82.90;95161.72;29395;246;63004;-58
2022/11/17 00:04:28;;;;;;;0.62;0.62;;;;;;;7.62;83.11;95154.13;29395;210;63009;-60
2022/11/17 00:04:59;;;;;;;0.60;0.60;;;;;;;7.63;82.60;95150.28;29395;382;63007;-59
2022/11/17 00:05:30;;;;;;;0.50;0.50;;;;;;;7.59;83.08;95150.12;29395;235;63009;-61
2022/11/17 00:06:06;;;;;;;0.60;0.60;;;;;;;7.59;83.14;95146.66;29394;209;64009;-59
2022/11/17 00:06:38;;;;;;;0.70;0.70;;;;;;;7.58;83.19;95142.34;29395;197;63009;-59
2022/11/17 00:07:10;;;;;;;0.50;0.50;;;;;;;7.57;83.49;95151.56;29395;236;63005;-60
2022/11/17 00:07:44;;;;;;;0.60;0.60;;;;;;;7.55;83.61;95148.38;29394;226;64013;-59
2022/11/17 00:08:15;;;;;;;2.15;2.05;;;;;;;7.52;83.28;95143.63;29395;257;63000;-60
2022/11/17 00:08:49;;;;;;;0.50;0.50;;;;;;;7.47;83.73;95141.06;29395;223;63019;-58
2022/11/17 00:09:20;;;;;;;0.50;0.50;;;;;;;7.50;83.77;95151.22;29395;280;63004;-58
2022/11/17 00:09:51;;;;;;;0.50;0.50;;;;;;;7.52;84.16;95151.72;29395;209;63018;-65
2022/11/17 00:10:22;;;;;;;0.50;0.50;;;;;;;7.54;83.94;95149.50;29395;216;63004;-59
2022/11/17 00:10:54;;;;;;;0.50;0.50;;;;;;;7.56;83.92;95145.37;29394;207;64013;-60
2022/11/17 00:11:25;;;;;;;0.50;0.50;;;;;;;7.57;83.56;95148.88;29395;229;63004;-59
2022/11/17 00:15:34;;;;;;;0.54;0.54;;;;;;;7.67;83.43;95132.34;88174;215;64004;-58
2022/11/17 00:16:06;;;;;;;0.50;0.50;;;;;;;7.68;83.12;95132.03;29394;205;64009;-58
2022/11/17 00:16:38;;;;;;;0.50;0.50;;;;;;;7.68;83.29;95125.84;29394;229;64009;-62
2022/11/17 00:17:12;;;;;;;0.80;0.80;;;;;;;7.72;83.55;95124.09;29395;216;63009;-60
2022/11/17 00:17:47;;;;;;;0.50;0.50;;;;;;;7.74;83.01;95124.56;29394;210;64009;-58
2022/11/17 00:21:35;;;;;;;0.50;0.50;;;;;;;7.65;83.04;95132.66;29395;197;63008;-59
2022/11/17 00:22:10;;;;;;;0.50;0.50;;;;;;;7.65;83.44;95131.88;29395;377;63004;-57
2022/11/17 00:22:41;;;;;;;0.50;0.50;;;;;;;7.64;83.75;95135.66;29395;227;63009;-58
2022/11/17 00:23:12;;;;;;;0.60;0.60;;;;;;;7.65;83.43;95137.25;29395;316;63016;-59
2022/11/17 00:23:48;;;;;;;0.50;0.50;;;;;;;7.65;83.55;95131.88;29395;203;63009;-58
2022/11/17 00:24:19;;;;;;;0.60;0.60;;;;;;;7.65;83.50;95137.25;29394;202;64009;-58
2022/11/17 00:24:51;;;;;;;0.50;0.50;;;;;;;7.69;83.58;95138.22;29395;220;63009;-59
2022/11/17 00:25:22;;;;;;;0.50;0.50;;;;;;;7.68;83.02;95137.44;29395;281;63005;-58
2022/11/17 00:25:53;;;;;;;0.50;0.50;;;;;;;7.68;83.48;95142.81;29395;282;63009;-58
2022/11/17 00:26:27;;;;;;;0.50;0.50;;;;;;;7.67;83.10;95140.44;29395;212;63004;-58
2022/11/17 00:27:01;;;;;;;0.50;0.50;;;;;;;7.67;83.68;95135.03;29395;272;63009;-58
2022/11/17 00:27:33;;;;;;;0.50;0.50;;;;;;;7.64;83.22;95146.47;29395;216;63004;-58
2022/11/17 00:28:04;;;;;;;0.50;0.50;;;;;;;7.64;83.76;95146.47;29395;281;63009;-59
2022/11/17 00:28:35;;;;;;;0.50;0.50;;;;;;;7.62;83.95;95144.09;29395;198;63004;-57
2022/11/17 00:29:06;;;;;;;0.50;0.50;;;;;;;7.60;83.54;95140.94;29394;218;64013;-57
2022/11/17 00:29:38;;;;;;;0.50;0.50;;;;;;;7.58;83.95;95139.66;29394;213;64009;-59
2022/11/17 00:34:03;;;;;;;0.43;0.43;;;;;;;7.56;83.85;95144.56;29395;203;63009;-58
2022/11/17 00:34:21;;;;;;;0.50;0.50;;;;;;;7.60;83.51;95145.53;29394;209;63999;-71
2022/11/17 00:34:52;;;;;;;0.50;0.50;;;;;;;7.58;83.62;95147.75;29395;226;63009;-57
2022/11/17 00:35:23;;;;;;;0.50;0.50;;;;;;;7.56;83.86;95139.19;29394;210;64009;-59
2022/11/17 00:35:55;;;;;;;0.50;0.50;;;;;;;7.55;83.87;95143.78;29395;219;63008;-60
2022/11/17 00:36:26;;;;;;;0.50;0.50;;;;;;;7.54;84.00;95139.50;29395;212;63009;-57
2022/11/17 00:36:57;;;;;;;0.50;0.50;;;;;;;7.54;83.94;95142.19;29395;229;63009;-59
2022/11/17 00:37:33;;;;;;;0.50;0.50;;;;;;;7.57;83.84;95140.78;29395;198;63005;-60
2022/11/17 00:38:16;;;;;;;0.50;0.50;;;;;;;7.60;83.75;95135.53;29395;298;63009;-58
2022/11/17 00:38:47;;;;;;;0.50;0.50;;;;;;;7.64;83.55;95132.97;29395;198;63005;-58
2022/11/17 00:39:21;;;;;;;0.50;0.50;;;;;;;7.65;82.89;95129.16;29395;231;63009;-60
2022/11/17 00:39:52;;;;;;;0.93;0.93;;;;;;;7.65;83.07;95131.88;29395;306;63005;-59
2022/11/17 00:40:23;;;;;;;0.52;0.52;;;;;;;7.63;83.67;95131.37;29394;218;64013;-57
2022/11/17 00:40:57;;;;;;;0.50;0.50;;;;;;;7.64;83.48;95130.28;29394;307;64009;-60
2022/11/17 00:41:28;;;;;;;0.50;0.50;;;;;;;7.64;83.28;95135.66;29395;202;63009;-58
2022/11/17 00:42:00;;;;;;;0.50;0.50;;;;;;;7.64;83.09;95124.88;29395;206;63004;-58
2022/11/17 00:42:34;;;;;;;0.60;0.60;;;;;;;7.64;83.16;95130.28;29395;244;63009;-59
2022/11/17 00:43:05;;;;;;;0.50;0.50;;;;;;;7.60;83.12;95124.75;29395;196;63000;-63
2022/11/17 00:43:36;;;;;;;0.50;0.50;;;;;;;7.56;83.41;95128.38;29395;202;63008;-57
2022/11/17 00:44:08;;;;;;;0.50;0.50;;;;;;;7.56;83.38;95129.19;29395;229;63004;-60
2022/11/17 00:44:44;;;;;;;0.60;0.60;;;;;;;7.54;83.51;95130.59;29395;225;63009;-57
2022/11/17 00:45:16;;;;;;;0.50;0.50;;;;;;;7.53;83.79;95139.81;29394;203;64009;-57
2022/11/17 00:45:47;;;;;;;0.50;0.50;;;;;;;7.51;83.77;95132.03;29395;264;63009;-58
2022/11/17 00:46:18;;;;;;;0.50;0.50;;;;;;;7.50;83.37;95130.44;29395;276;63005;-57
2022/11/17 00:46:49;;;;;;;0.50;0.50;;;;;;;7.53;83.43;95132.50;29394;222;64013;-60
2022/11/17 00:47:21;;;;;;;0.50;0.50;;;;;;;7.50;83.85;95124.25;29394;256;64009;-58
2022/11/17 00:47:52;;;;;;;0.50;0.50;;;;;;;7.45;83.69;95127.88;29395;196;63009;-59
2022/11/17 00:48:23;;;;;;;0.50;0.50;;;;;;;7.45;83.72;95127.09;29395;288;63005;-59
2022/11/17 00:48:55;;;;;;;0.50;0.50;;;;;;;7.46;84.13;95131.37;29395;288;63014;-58
2022/11/17 00:49:26;;;;;;;0.50;0.50;;;;;;;7.46;83.84;95124.09;29395;261;63004;-58
2022/11/17 00:50:00;;;;;;;0.50;0.50;;;;;;;7.49;84.01;95122.66;29395;280;63009;-59
2022/11/17 00:50:34;;;;;;;0.50;0.50;;;;;;;7.48;83.76;95124.56;29395;253;63008;-59
2022/11/17 00:51:06;;;;;;;0.50;0.50;;;;;;;7.45;84.05;95129.78;29394;219;64013;-59
2022/11/17 00:51:38;;;;;;;0.50;0.50;;;;;;;7.44;83.79;95130.91;29395;270;63010;-62
2022/11/17 00:52:10;;;;;;;0.50;0.50;;;;;;;7.41;84.24;95126.94;29395;225;63009;-59
2022/11/17 00:52:41;;;;;;;0.50;0.50;;;;;;;7.44;84.05;95122.81;29395;207;63005;-58
2022/11/17 00:53:12;;;;;;;0.50;0.50;;;;;;;7.44;84.26;95125.50;29395;218;63016;-57
2022/11/17 00:53:43;;;;;;;0.50;0.50;;;;;;;7.45;84.33;95121.69;29395;234;63005;-60
2022/11/17 00:54:14;;;;;;;0.50;0.50;;;;;;;7.45;84.35;95117.09;29395;225;63026;-58
2022/11/17 00:54:46;;;;;;;0.50;0.50;;;;;;;7.46;84.37;95112.50;29395;245;63005;-60
2022/11/17 00:55:17;;;;;;;0.98;0.93;;;;;;;7.45;84.23;95110.91;29395;292;63005;-60
2022/11/17 00:55:48;;;;;;;0.50;0.50;;;;;;;7.45;84.32;95105.50;29395;297;63005;-58
2022/11/17 00:56:20;;;;;;;0.50;0.50;;;;;;;7.43;84.21;95107.72;29394;248;64013;-58
2022/11/17 00:56:51;;;;;;;0.50;0.50;;;;;;;7.39;84.23;95102.94;29395;230;63004;-57
2022/11/17 00:57:24;;;;;;;1.75;1.65;;;;;;;7.38;84.50;95100.56;29395;201;63009;-57
2022/11/17 00:57:55;;;;;;;0.50;0.50;;;;;;;7.36;84.87;95103.59;29395;197;63004;-58
2022/11/17 00:58:27;;;;;;;0.50;0.50;;;;;;;7.36;84.83;95098.19;29395;213;63009;-59
2022/11/17 00:58:58;;;;;;;0.50;0.50;;;;;;;7.37;84.96;95104.38;29395;211;63004;-60
2022/11/17 00:59:30;;;;;;;0.50;0.50;;;;;;;7.36;84.87;95100.09;29395;289;63009;-66
2022/11/17 01:00:02;;;;;;;0.60;0.60;;;;;;;7.38;85.05;95097.88;29395;284;63005;-66
2022/11/17 01:01:43;;;;;;;0.50;0.50;;;;;;;7.41;85.15;95110.72;87938;76;151000;-61
2022/11/17 01:02:14;;;;;;;0.60;0.60;;;;;;;7.43;84.69;95102.31;29394;240;64009;-58
2022/11/17 01:02:46;;;;;;;0.73;0.73;;;;;;;7.44;85.01;95109.31;29395;278;63004;-59
2022/11/17 01:03:17;;;;;;;0.50;0.50;;;;;;;7.47;84.88;95103.28;29395;199;63009;-58
2022/11/17 01:03:48;;;;;;;0.55;0.55;;;;;;;7.48;84.65;95099.47;29395;321;63004;-59
2022/11/17 01:04:20;;;;;;;0.60;0.60;;;;;;;7.47;84.89;95098.69;29395;340;63009;-67
2022/11/17 01:04:57;;;;;;;0.50;0.50;;;;;;;7.48;84.47;95104.88;29395;223;63004;-59
2022/11/17 01:05:28;;;;;;;1.08;1.08;;;;;;;7.50;84.38;95091.87;29395;241;63008;-59
2022/11/17 01:06:14;;;;;;;0.50;0.50;;;;;;;7.51;84.19;95098.84;29395;235;63004;-58
2022/11/17 01:06:48;;;;;;;0.50;0.50;;;;;;;7.50;84.82;95102.66;29395;299;63009;-58
2022/11/17 01:07:21;;;;;;;0.50;0.50;;;;;;;7.49;84.76;95101.06;29394;210;64009;-57
2022/11/17 01:07:53;;;;;;;1.30;1.30;;;;;;;7.49;84.71;95101.06;29395;210;63009;-58
2022/11/17 01:08:24;;;;;;;0.52;0.52;;;;;;;7.47;84.57;95093.28;29395;229;63005;-60
2022/11/17 01:08:59;;;;;;;0.50;0.50;;;;;;;7.49;84.48;95090.28;29395;216;63014;-60
2022/11/17 01:09:31;;;;;;;0.50;0.50;;;;;;;7.50;84.42;95089.16;29395;269;63005;-58
2022/11/17 01:10:03;;;;;;;0.50;0.50;;;;;;;7.49;84.62;95093.75;29395;196;63009;-58
2022/11/17 01:10:35;;;;;;;0.50;0.50;;;;;;;7.52;84.43;95086.94;29395;205;63004;-58
2022/11/17 01:11:15;;;;;;;0.50;0.50;;;;;;;7.53;84.60;95085.84;29395;210;63009;-58
2022/11/17 01:11:49;;;;;;;0.55;0.55;;;;;;;7.55;84.39;95086.31;29439;241;125004;-61
2022/11/17 01:12:20;;;;;;;0.60;0.60;;;;;;;7.56;84.20;95085.19;29371;348;64013;-58
2022/11/17 01:12:51;;;;;;;0.50;0.50;;;;;;;7.56;84.50;95085.19;29395;260;63004;-58
2022/11/17 01:13:22;;;;;;;0.50;0.50;;;;;;;7.55;84.87;95083.63;29395;297;63008;-59
2022/11/17 01:13:56;;;;;;;0.50;0.50;;;;;;;7.54;84.71;95087.41;29394;296;64009;-59
2022/11/17 01:14:31;;;;;;;0.50;0.50;;;;;;;7.54;84.96;95082.03;29395;235;63009;-58
2022/11/17 01:15:03;;;;;;;1.37;1.35;;;;;;;7.57;84.65;95076.00;29394;237;64009;-59
2022/11/17 01:15:35;;;;;;;0.50;0.50;;;;;;;7.60;84.37;95078.06;29395;310;63020;-58
2022/11/17 01:17:15;;;;;;;0.84;0.84;;;;;;;7.59;84.44;95069.16;88174;224;64004;-59
2022/11/17 01:17:46;;;;;;;0.50;0.50;;;;;;;7.60;84.48;95072.66;29394;226;64009;-58
2022/11/17 01:18:17;;;;;;;0.60;0.60;;;;;;;7.60;84.42;95061.87;29395;259;63004;-59
2022/11/17 01:18:50;;;;;;;0.50;0.50;;;;;;;7.57;84.47;95066.00;29395;225;63009;-58
2022/11/17 01:19:22;;;;;;;0.50;0.50;;;;;;;7.57;84.82;95065.19;29394;206;64009;-58
2022/11/17 01:19:54;;;;;;;0.50;0.50;;;;;;;7.58;84.81;95059.47;29394;274;64009;-59
2022/11/17 01:20:26;;;;;;;0.50;0.50;;;;;;;7.59;84.44;95060.28;29395;215;63004;-60
2022/11/17 01:21:04;;;;;;;0.50;0.50;;;;;;;7.60;84.30;95059.16;29395;197;63008;-58
2022/11/17 01:21:35;;;;;;;0.50;0.50;;;;;;;7.59;84.34;95057.59;29395;213;63005;-60
2022/11/17 01:22:06;;;;;;;0.50;0.50;;;;;;;7.59;84.43;95060.28;29394;213;64014;-63
2022/11/17 01:22:37;;;;;;;0.50;0.50;;;;;;;7.57;84.32;95059.81;29395;219;63005;-59
2022/11/17 01:23:09;;;;;;;0.57;0.57;;;;;;;7.55;84.73;95057.41;29395;197;63009;-58
2022/11/17 01:23:42;;;;;;;0.50;0.50;;;;;;;7.54;84.78;95063.13;29395;258;63005;-59
2022/11/17 01:24:15;;;;;;;0.50;0.50;;;;;;;7.53;84.41;95058.84;29395;287;63009;-57
2022/11/17 01:24:47;;;;;;;0.50;0.50;;;;;;;7.51;84.71;95053.75;29395;245;63005;-58
2022/11/17 01:25:18;;;;;;;0.50;0.50;;;;;;;7.51;84.93;95056.47;29395;214;63009;-59
2022/11/17 01:25:49;;;;;;;0.50;0.50;;;;;;;7.51;84.78;95058.38;29395;219;63004;-57
2022/11/17 01:26:26;;;;;;;0.50;0.50;;;;;;;7.51;85.07;95055.66;29395;220;63009;-60
2022/11/17 01:26:57;;;;;;;0.60;0.60;;;;;;;7.53;84.61;95054.25;29395;242;63004;-57
2022/11/17 01:27:29;;;;;;;0.50;0.50;;;;;;;7.52;84.63;95058.06;29394;247;64013;-59
2022/11/17 01:28:02;;;;;;;0.50;0.50;;;;;;;7.51;84.75;95055.66;29395;197;63004;-61
2022/11/17 01:28:34;;;;;;;0.50;0.50;;;;;;;7.51;84.63;95055.66;29394;223;64008;-58
2022/11/17 01:29:07;;;;;;;0.60;0.60;;;;;;;7.54;84.86;95055.03;29395;202;63004;-59
2022/11/17 01:29:38;;;;;;;0.60;0.60;;;;;;;7.57;84.33;95052.50;29395;298;63009;-58
2022/11/17 01:30:11;;;;;;;0.50;0.50;;;;;;;7.58;84.57;95043.28;29394;206;64009;-58
2022/11/17 01:30:42;;;;;;;0.50;0.50;;;;;;;7.58;84.39;95050.59;29395;222;63009;-57
2022/11/17 01:32:20;;;;;;;0.59;0.59;;;;;;;7.59;84.57;95041.38;88178;219;64005;-57
2022/11/17 01:32:51;;;;;;;0.50;0.50;;;;;;;7.55;84.66;95037.72;29394;209;64009;-60
2022/11/17 01:33:23;;;;;;;0.50;0.50;;;;;;;7.55;84.61;95043.12;29394;226;64009;-62
2022/11/17 01:33:54;;;;;;;0.60;0.60;;;;;;;7.55;84.58;95045.81;29395;218;63009;-58
2022/11/17 01:34:26;;;;;;;0.47;0.47;;;;;;;7.53;84.25;95037.25;29395;210;63004;-58
2022/11/17 01:34:58;;;;;;;0.62;0.62;;;;;;;7.52;84.81;95036.47;29395;206;63008;-58
2022/11/17 01:35:32;;;;;;;0.50;0.50;;;;;;;7.53;84.60;95032.66;29395;216;63005;-59
2022/11/17 01:36:16;;;;;;;0.50;0.50;;;;;;;7.52;84.92;95036.47;29395;217;63009;-60
2022/11/17 01:37:40;;;;;;;0.50;0.50;;;;;;;7.48;84.79;95045.50;29395;229;63009;-58
2022/11/17 01:38:11;;;;;;;0.60;0.60;;;;;;;7.45;84.80;95035.34;29395;197;63005;-57
2022/11/17 01:38:43;;;;;;;0.50;0.50;;;;;;;7.46;84.92;95034.22;29394;211;64013;-57
2022/11/17 01:39:15;;;;;;;0.50;0.50;;;;;;;7.43;84.92;95040.25;29395;197;63004;-57
2022/11/17 01:39:48;;;;;;;0.50;0.50;;;;;;;7.38;85.44;95036.59;29395;227;63009;-58
2022/11/17 01:40:19;;;;;;;0.50;0.50;;;;;;;7.38;85.41;95042.00;29395;235;63004;-58
2022/11/17 01:40:51;;;;;;;0.57;0.57;;;;;;;7.37;85.58;95031.53;29395;245;63009;-59
2022/11/17 01:41:25;;;;;;;0.60;0.60;;;;;;;7.37;85.71;95036.94;29395;353;63004;-58
2022/11/17 01:42:01;;;;;;;0.50;0.50;;;;;;;7.36;85.95;95038.81;29395;232;63008;-58
2022/11/17 01:42:32;;;;;;;0.50;0.50;;;;;;;7.35;85.54;95037.25;29395;214;63004;-57
2022/11/17 01:43:09;;;;;;;0.50;0.50;;;;;;;7.31;86.18;95047.06;29395;208;63009;-59
2022/11/17 01:43:46;;;;;;;0.50;0.50;;;;;;;7.29;86.04;95033.09;29395;286;63005;-59
2022/11/17 01:45:03;;;;;;;0.50;0.50;;;;;;;7.35;85.97;95023.75;29394;212;64013;-58
2022/11/17 01:45:37;;;;;;;0.50;0.50;;;;;;;7.33;85.68;95034.06;29395;285;63005;-58
2022/11/17 01:46:37;;;;;;;0.50;0.50;;;;;;;7.31;86.15;95020.09;29395;244;63009;-58
2022/11/17 01:47:20;;;;;;;0.70;0.70;;;;;;;7.31;86.03;95014.69;29395;263;63004;-59
2022/11/17 01:48:01;;;;;;;1.00;1.00;;;;;;;7.35;85.88;95015.66;29395;218;63009;-59
2022/11/17 01:48:34;;;;;;;0.50;0.50;;;;;;;7.36;85.33;95011.84;29417;256;63004;-58
2022/11/17 01:49:19;;;;;;;0.60;0.60;;;;;;;7.38;85.64;95015.03;29395;197;63017;-58
2022/11/17 01:49:55;;;;;;;0.50;0.50;;;;;;;7.38;85.69;95015.03;29394;253;63999;-59
2022/11/17 01:50:42;;;;;;;0.50;0.50;;;;;;;7.38;85.67;95015.03;29395;228;63009;-59
2022/11/17 01:51:14;;;;;;;0.50;0.50;;;;;;;7.37;85.68;95018.84;29395;239;63005;-57
2022/11/17 01:51:59;;;;;;;0.50;0.50;;;;;;;7.34;85.93;95018.66;29394;275;64009;-57
2022/11/17 01:52:33;;;;;;;0.55;0.55;;;;;;;7.30;85.86;95018.50;29395;271;63005;-57
2022/11/17 01:53:14;;;;;;;0.50;0.50;;;;;;;7.28;85.98;95009.94;29395;286;63009;-58
2022/11/17 01:53:49;;;;;;;1.08;1.08;;;;;;;7.29;85.89;95016.13;29416;202;64005;-57
2022/11/17 01:54:26;;;;;;;0.50;0.50;;;;;;;7.27;86.14;95016.47;29395;200;63009;-60
2022/11/17 01:54:59;;;;;;;0.50;0.50;;;;;;;7.29;86.17;95019.62;29394;306;64009;-58
2022/11/17 01:56:10;;;;;;;0.50;0.50;;;;;;;7.26;86.38;95012.19;29395;236;63009;-58
2022/11/17 01:56:46;;;;;;;0.50;0.50;;;;;;;7.28;85.96;95009.94;29395;196;63004;-59
2022/11/17 01:57:26;;;;;;;0.77;0.77;;;;;;;7.30;86.13;95005.03;29395;221;63008;-58
2022/11/17 01:58:05;;;;;;;0.50;0.50;;;;;;;7.35;85.62;94999.47;29417;209;63005;-58
2022/11/17 01:58:42;;;;;;;0.80;0.80;;;;;;;7.34;85.79;94997.88;29395;238;63024;-58
2022/11/17 01:59:35;;;;;;;0.60;0.60;;;;;;;7.31;85.67;94993.13;29395;264;63005;-57
2022/11/17 02:00:09;;;;;;;0.50;0.50;;;;;;;7.31;85.87;94995.81;29394;300;64013;-69
2022/11/17 02:00:41;;;;;;;0.50;0.50;;;;;;;7.32;85.71;94993.91;29395;222;63011;-58
2022/11/17 02:01:13;;;;;;;0.50;0.50;;;;;;;7.34;85.96;94997.88;29395;241;63009;-58
2022/11/17 02:01:57;;;;;;;0.50;0.50;;;;;;;7.34;85.50;94986.28;29395;209;63005;-58
2022/11/17 02:03:39;;;;;;;0.56;0.56;;;;;;;7.39;85.65;94989.62;88174;203;64004;-57
2022/11/17 02:04:10;;;;;;;0.75;0.75;;;;;;;7.38;85.54;94990.75;29394;269;64009;-57
2022/11/17 02:04:52;;;;;;;0.50;0.50;;;;;;;7.36;85.55;94990.25;29395;255;63005;-58
2022/11/17 02:05:54;;;;;;;1.77;1.77;;;;;;;7.31;85.69;94981.53;29394;228;64013;-56
2022/11/17 02:06:34;;;;;;;0.60;0.60;;;;;;;7.28;86.13;94984.88;29417;207;63009;-57
2022/11/17 02:07:21;;;;;;;0.60;0.60;;;;;;;7.28;86.11;94988.34;29417;203;63005;-58
2022/11/17 02:07:54;;;;;;;0.60;0.60;;;;;;;7.25;85.98;94980.94;29395;231;63009;-57
2022/11/17 02:08:30;;;;;;;0.50;0.50;;;;;;;7.24;86.10;94975.84;29395;231;63004;-57
2022/11/17 02:09:06;;;;;;;0.60;0.60;;;;;;;7.23;86.13;94980.44;29395;236;63009;-60
2022/11/17 02:09:39;;;;;;;0.60;0.60;;;;;;;7.21;86.62;94966.47;29395;215;63004;-59
2022/11/17 02:10:11;;;;;;;0.52;0.52;;;;;;;7.22;86.57;94965.38;29395;276;63008;-57
2022/11/17 02:10:43;;;;;;;0.50;0.50;;;;;;;7.25;86.40;94967.44;29394;240;64009;-59
2022/11/17 02:11:17;;;;;;;0.50;0.50;;;;;;;7.27;86.36;94962.53;29395;269;63009;-60
2022/11/17 02:11:49;;;;;;;0.50;0.50;;;;;;;7.27;86.47;94964.44;29395;264;63005;-60
2022/11/17 02:12:23;;;;;;;0.50;0.50;;;;;;;7.31;85.88;94951.84;29395;257;63009;-58
2022/11/17 02:12:55;;;;;;;1.73;1.62;;;;;;;7.30;85.63;94951.06;29395;251;63019;-57
2022/11/17 02:13:27;;;;;;;0.50;0.50;;;;;;;7.27;85.86;94954.44;29395;279;63009;-57
2022/11/17 02:13:59;;;;;;;0.50;0.50;;;;;;;7.26;86.19;94952.84;29395;237;63005;-58
2022/11/17 02:14:30;;;;;;;1.25;1.25;;;;;;;7.27;86.03;94959.03;29395;222;63009;-60
2022/11/17 02:15:02;;;;;;;0.50;0.50;;;;;;;7.24;86.22;94952.38;29395;202;63004;-58
2022/11/17 02:15:34;;;;;;;0.50;0.50;;;;;;;7.21;86.02;94950.31;29394;246;64021;-57
2022/11/17 02:16:10;;;;;;;0.50;0.50;;;;;;;7.20;86.45;94947.91;29394;196;64009;-57
2022/11/17 02:16:41;;;;;;;0.50;0.50;;;;;;;7.16;86.51;94950.47;29395;218;63009;-58
2022/11/17 02:17:13;;;;;;;0.50;0.50;;;;;;;7.14;86.74;94951.88;29395;262;63004;-58
2022/11/17 02:18:53;;;;;;;0.60;0.60;;;;;;;7.08;87.18;94951.25;88174;209;64004;-57
2022/11/17 02:19:27;;;;;;;0.50;0.50;;;;;;;7.08;87.14;94951.25;29394;218;64009;-58
2022/11/17 02:20:39;;;;;;;0.50;0.50;;;;;;;7.03;87.33;94949.50;29395;220;63005;-58
2022/11/17 02:22:08;;;;;;;0.50;0.50;;;;;;;7.00;87.67;94954.72;29416;233;64013;-57
2022/11/17 02:23:20;;;;;;;0.50;0.50;;;;;;;6.97;88.14;94944.56;29395;257;63009;-57
2022/11/17 02:24:10;;;;;;;;;;;;;;;6.97;88.31;94949.97;29996;983;6004;-57
2022/11/17 02:25:24;;;;;;;1.12;1.12;;;;;;;7.00;87.88;94944.75;29400;226;63008;-57
2022/11/17 02:26:40;;;;;;;0.55;0.55;;;;;;;6.98;87.77;94946.16;29394;202;64009;-56
2022/11/17 02:27:48;;;;;;;0.50;0.50;;;;;;;6.93;88.01;94933.63;29395;300;63015;-71
2022/11/17 02:28:41;;;;;;;0.50;0.50;;;;;;;6.92;88.14;94937.47;29395;202;63005;-58
2022/11/17 02:29:29;;;;;;;0.50;0.50;;;;;;;6.91;88.05;94932.37;29395;280;63009;-57
2022/11/17 02:30:06;;;;;;;0.50;0.50;;;;;;;6.91;88.13;94935.09;29395;209;63011;-57
2022/11/17 02:31:31;;;;;;;0.50;0.50;;;;;;;6.92;88.08;94931.28;29395;263;63015;-57
2022/11/17 02:32:16;;;;;;;0.50;0.50;;;;;;;6.90;87.98;94920.81;29395;240;63010;-58
2022/11/17 02:34:15;;;;;;;0.52;0.52;;;;;;;6.92;87.98;94915.91;88178;252;64004;-58
2022/11/17 02:34:57;;;;;;;0.50;0.50;;;;;;;6.97;87.13;94918.41;29394;239;63999;-57
2022/11/17 02:36:08;;;;;;;0.50;0.50;;;;;;;6.97;87.34;94926.50;29395;235;63000;-57
2022/11/17 02:37:00;;;;;;;0.60;0.60;;;;;;;6.97;87.49;94928.41;29395;227;63009;-57
2022/11/17 02:38:00;;;;;;;0.50;0.50;;;;;;;6.96;87.68;94921.41;29416;279;64009;-58
2022/11/17 02:38:54;;;;;;;0.50;0.50;;;;;;;6.95;87.61;94922.53;29395;207;63009;-57
2022/11/17 02:39:35;;;;;;;0.60;0.60;;;;;;;6.94;87.87;94924.44;29395;273;63004;-57
2022/11/17 02:40:15;;;;;;;0.50;0.50;;;;;;;6.93;88.00;94917.44;29416;240;64013;-58
2022/11/17 02:41:09;;;;;;;0.50;0.50;;;;;;;6.96;87.76;94910.63;29394;215;64008;-58
2022/11/17 02:42:07;;;;;;;0.50;0.50;;;;;;;7.01;87.14;94902.37;29395;236;63009;-58
2022/11/17 02:44:54;;;;;;;0.50;0.50;;;;;;;7.05;86.22;94870.97;29395;207;63005;-57
2022/11/17 02:45:36;;;;;;;0.50;0.50;;;;;;;7.11;86.13;94866.22;29395;198;63009;-59
2022/11/17 02:46:18;;;;;;;0.98;0.98;;;;;;;7.15;85.53;94862.56;29394;301;64009;-57
2022/11/17 02:46:55;;;;;;;0.50;0.50;;;;;;;7.12;85.62;94868.59;29395;239;63009;-57
2022/11/17 02:47:35;;;;;;;0.50;0.50;;;;;;;7.09;85.81;94865.75;29395;202;63004;-57
2022/11/17 02:49:28;;;;;;;0.51;0.51;;;;;;;7.05;86.46;94876.38;88174;206;64004;-57
2022/11/17 02:50:04;;;;;;;0.50;0.50;;;;;;;7.06;86.59;94877.97;29394;235;64009;-57
2022/11/17 02:50:37;;;;;;;1.65;1.65;;;;;;;7.09;86.76;94882.72;29395;198;63005;-57
2022/11/17 02:51:15;;;;;;;0.50;0.50;;;;;;;7.10;86.54;94881.59;29395;221;63009;-58
2022/11/17 02:51:54;;;;;;;0.60;0.60;;;;;;;7.07;86.52;94879.53;29395;228;63005;-57
2022/11/17 02:52:28;;;;;;;0.50;0.50;;;;;;;7.05;86.75;94884.47;29395;203;63009;-58
2022/11/17 02:53:00;;;;;;;0.50;0.50;;;;;;;7.03;86.68;94884.78;29395;210;63004;-59
2022/11/17 02:53:34;;;;;;;0.50;0.50;;;;;;;7.01;87.11;94875.41;29395;250;63009;-57
2022/11/17 02:54:07;;;;;;;0.60;0.60;;;;;;;6.99;87.21;94883.03;29394;226;64009;-57
2022/11/17 02:54:38;;;;;;;0.50;0.50;;;;;;;6.99;87.24;94877.63;29395;231;63008;-58
2022/11/17 02:55:10;;;;;;;0.50;0.50;;;;;;;6.99;87.19;94873.03;29394;242;64008;-56
2022/11/17 02:55:50;;;;;;;0.50;0.50;;;;;;;7.01;86.51;94875.41;29395;211;63009;-57
2022/11/17 02:56:22;;;;;;;0.50;0.50;;;;;;;6.98;86.80;94870.66;29395;198;63005;-57
2022/11/17 02:56:54;;;;;;;0.60;0.60;;;;;;;6.98;87.22;94867.97;29395;251;63009;-57
2022/11/17 02:57:36;;;;;;;0.50;0.50;;;;;;;6.98;86.69;94871.47;29394;202;64009;-57
2022/11/17 02:58:11;;;;;;;0.50;0.50;;;;;;;7.00;86.73;94873.84;29395;268;63009;-58
2022/11/17 02:58:42;;;;;;;0.50;0.50;;;;;;;7.01;86.47;94870.03;29395;202;63005;-60
2022/11/17 02:59:17;;;;;;;0.50;0.50;;;;;;;7.01;86.61;94865.44;29395;244;63009;-57
2022/11/17 02:59:49;;;;;;;0.50;0.50;;;;;;;7.04;86.76;94875.59;29395;276;63008;-57
2022/11/17 03:00:21;;;;;;;0.50;0.50;;;;;;;7.04;86.31;94872.88;29394;206;64013;-57
2022/11/17 03:01:13;;;;;;;0.50;0.50;;;;;;;7.04;86.27;94875.59;29395;212;63013;-56
2022/11/17 03:02:29;;;;;;;0.60;0.60;;;;;;;7.04;86.83;94883.66;29417;229;63016;-57
2022/11/17 03:03:38;;;;;;;0.50;0.50;;;;;;;7.04;86.59;94885.56;29395;204;63005;-58
2022/11/17 03:05:54;;;;;;;0.57;0.57;;;;;;;7.01;87.24;94902.37;88178;235;64004;-57
2022/11/17 03:07:12;;;;;;;0.50;0.50;;;;;;;7.01;87.38;94907.78;29394;224;64009;-57
2022/11/17 03:08:19;;;;;;;0.60;0.60;;;;;;;7.01;87.19;94907.78;29395;272;63009;-56
2022/11/17 03:09:32;;;;;;;0.50;0.50;;;;;;;6.99;87.41;94910.78;29394;202;64009;-57
2022/11/17 03:10:52;;;;;;;0.60;0.60;;;;;;;7.00;87.28;94917.78;29417;215;63009;-57
2022/11/17 03:11:41;;;;;;;0.60;0.60;;;;;;;7.00;87.97;94927.75;29395;288;63004;-57
2022/11/17 03:12:28;;;;;;;0.50;0.50;;;;;;;7.00;87.72;94927.75;29395;203;63018;-57
2022/11/17 03:13:29;;;;;;;0.57;0.57;;;;;;;7.02;87.85;94930.94;29395;223;63008;-56
2022/11/17 03:14:22;;;;;;;0.60;0.60;;;;;;;7.02;87.97;94930.94;29438;312;64013;-58
2022/11/17 03:15:35;;;;;;;0.55;0.55;;;;;;;7.11;87.02;94934.44;29395;241;63007;-57
2022/11/17 03:16:41;;;;;;;0.50;0.50;;;;;;;7.20;86.04;94937.94;29395;233;63009;-57
2022/11/17 03:17:43;;;;;;;0.55;0.55;;;;;;;7.21;85.69;94934.13;29394;254;64009;-58
2022/11/17 03:18:40;;;;;;;0.50;0.50;;;;;;;7.24;85.79;94928.09;29417;220;63008;-58
2022/11/17 03:19:39;;;;;;;0.50;0.50;;;;;;;7.23;86.24;94918.41;29395;198;63009;-57
2022/11/17 03:20:26;;;;;;;0.60;0.60;;;;;;;7.28;85.94;94907.44;29395;256;63009;-57
2022/11/17 03:21:20;;;;;;;0.50;0.50;;;;;;;7.33;85.98;94909.16;29394;231;64009;-58
2022/11/17 03:22:34;;;;;;;0.50;0.50;;;;;;;7.35;86.00;94896.94;29395;203;63009;-57
2022/11/17 03:23:18;;;;;;;0.60;0.60;;;;;;;7.40;86.72;94899.47;29394;199;64009;-57
2022/11/17 03:24:10;;;;;;;2.58;2.47;;;;;;;7.37;86.64;94896.63;29395;216;63009;-58
2022/11/17 03:24:48;;;;;;;0.50;0.50;;;;;;;7.35;86.80;94891.56;29395;221;63010;-58
2022/11/17 03:25:23;;;;;;;0.80;0.80;;;;;;;7.38;86.77;94896.31;29394;205;64004;-58
2022/11/17 03:25:57;;;;;;;0.50;0.50;;;;;;;7.40;87.35;94894.09;29395;238;63004;-58
2022/11/17 03:26:39;;;;;;;0.80;0.80;;;;;;;7.38;87.15;94893.63;29395;232;63009;-58